createdAt,value
2022-11-07T00:00:29.196Z,1.38
2022-11-07T00:02:56.166Z,1.20
2022-11-07T00:05:23.021Z,1.38
2022-11-07T00:07:49.980Z,1.17
2022-11-07T00:10:16.792Z,1.35
2022-11-07T00:12:43.670Z,1.17
2022-11-07T00:15:10.789Z,1.38
2022-11-07T00:17:37.607Z,1.52
2022-11-07T00:20:04.812Z,1.50
2022-11-07T00:22:31.734Z,1.35
2022-11-07T00:24:58.592Z,1.23
2022-11-07T00:27:25.497Z,1.20
2022-11-07T00:29:52.507Z,1.20
2022-11-07T00:32:19.372Z,1.50
2022-11-07T00:34:46.219Z,1.15
2022-11-07T00:37:13.055Z,1.00
2022-11-07T00:39:39.847Z,1.33
2022-11-07T00:42:06.736Z,0.95
2022-11-07T00:44:33.485Z,1.30
2022-11-07T00:47:00.420Z,1.30
2022-11-07T00:49:27.623Z,1.30
2022-11-07T00:51:54.612Z,1.15
2022-11-07T00:54:21.518Z,1.20
2022-11-07T00:56:48.402Z,1.20
2022-11-07T00:59:15.300Z,1.00
2022-11-07T01:01:42.398Z,1.23
2022-11-07T01:04:32.057Z,1.23
2022-11-07T01:06:59.726Z,1.10
2022-11-07T01:09:26.631Z,1.15
2022-11-07T01:11:54.017Z,1.50
2022-11-07T01:14:22.890Z,1.40
2022-11-07T01:16:50.982Z,1.33
2022-11-07T01:19:19.695Z,1.40
2022-11-07T01:21:46.838Z,1.42
2022-11-07T01:24:14.746Z,1.25
2022-11-07T01:26:42.766Z,1.17
2022-11-07T01:29:10.082Z,1.27
2022-11-07T01:31:37.086Z,1.25
2022-11-07T01:34:04.090Z,1.20
2022-11-07T01:36:30.917Z,1.35
2022-11-07T01:38:57.989Z,1.30
2022-11-07T01:41:29.595Z,1.23
2022-11-07T01:44:08.314Z,1.35
2022-11-07T01:46:43.805Z,1.20
2022-11-07T01:49:28.204Z,1.35
2022-11-07T01:52:16.779Z,0.98
2022-11-07T01:54:56.995Z,1.10
2022-11-07T01:57:54.952Z,1.55
2022-11-07T02:00:23.368Z,1.38
2022-11-07T02:02:58.025Z,1.08
2022-11-07T02:05:35.402Z,1.10
2022-11-07T02:08:06.418Z,1.38
2022-11-07T02:10:34.878Z,1.00
2022-11-07T02:13:03.476Z,0.95
2022-11-07T02:15:30.583Z,1.45
2022-11-07T02:17:58.559Z,1.20
2022-11-07T02:20:25.404Z,1.30
2022-11-07T02:22:56.657Z,1.30
2022-11-07T02:25:24.160Z,0.98
2022-11-07T02:27:56.300Z,1.20
2022-11-07T02:30:34.702Z,1.17
2022-11-07T02:33:02.823Z,0.90
2022-11-07T02:35:29.623Z,0.85
2022-11-07T02:37:56.549Z,1.23
2022-11-07T02:40:23.849Z,1.20
2022-11-07T02:42:50.946Z,0.90
2022-11-07T02:45:26.557Z,1.23
2022-11-07T02:47:53.495Z,1.23
2022-11-07T02:50:20.536Z,1.00
2022-11-07T02:52:47.477Z,1.20
2022-11-07T02:55:14.761Z,1.23
2022-11-07T02:57:41.921Z,1.20
2022-11-07T03:00:11.999Z,1.17
2022-11-07T03:02:39.347Z,1.33
2022-11-07T03:05:06.720Z,1.70
2022-11-07T03:07:33.767Z,1.70
2022-11-07T03:10:00.620Z,1.40
2022-11-07T03:12:27.482Z,1.42
2022-11-07T03:14:54.623Z,1.90
2022-11-07T03:17:21.482Z,1.65
2022-11-07T03:19:48.281Z,1.92
2022-11-07T03:22:15.185Z,2.10
2022-11-07T03:24:42.062Z,1.80
2022-11-07T03:27:09.039Z,1.80
2022-11-07T03:29:35.869Z,1.40
2022-11-07T03:32:02.760Z,1.50
2022-11-07T03:34:29.554Z,1.77
2022-11-07T03:36:56.400Z,1.50
2022-11-07T03:39:25.925Z,1.60
2022-11-07T03:41:52.951Z,1.65
2022-11-07T03:44:19.768Z,1.80
2022-11-07T03:46:46.724Z,1.50
2022-11-07T03:49:13.859Z,1.48
2022-11-07T03:51:40.669Z,1.70
2022-11-07T03:54:08.028Z,1.85
2022-11-07T03:56:34.846Z,1.65
2022-11-07T03:59:01.944Z,1.90
2022-11-07T04:01:28.815Z,1.75
2022-11-07T04:03:56.483Z,1.92
2022-11-07T04:06:23.939Z,1.33
2022-11-07T04:08:50.731Z,2.00
2022-11-07T04:11:36.389Z,1.83
2022-11-07T04:14:21.701Z,1.20
2022-11-07T04:17:07.351Z,1.50
2022-11-07T04:19:34.187Z,1.60
2022-11-07T04:22:01.033Z,1.20
2022-11-07T04:24:27.806Z,1.40
2022-11-07T04:27:13.348Z,1.63
2022-11-07T04:29:40.101Z,1.88
2022-11-07T04:32:07.619Z,2.28
2022-11-07T04:34:34.459Z,1.80
2022-11-07T04:37:01.224Z,1.50
2022-11-07T04:39:28.852Z,1.42
2022-11-07T04:41:56.559Z,1.75
2022-11-07T04:44:23.340Z,1.60
2022-11-07T04:46:50.265Z,1.45
2022-11-07T04:49:17.107Z,1.50
2022-11-07T04:51:44.806Z,1.60
2022-11-07T04:54:13.625Z,1.73
2022-11-07T04:56:41.274Z,1.83
2022-11-07T04:59:08.735Z,1.92
2022-11-07T05:01:35.845Z,1.65
2022-11-07T05:04:02.763Z,1.80
2022-11-07T05:06:30.623Z,2.13
2022-11-07T05:08:57.496Z,1.30
2022-11-07T05:11:24.339Z,1.52
2022-11-07T05:13:51.187Z,1.67
2022-11-07T05:16:18.040Z,1.30
2022-11-07T05:18:45.241Z,2.17
2022-11-07T05:21:12.103Z,1.38
2022-11-07T05:23:38.905Z,1.55
2022-11-07T05:26:06.094Z,1.67
2022-11-07T05:28:39.256Z,1.63
2022-11-07T05:31:08.128Z,1.35
2022-11-07T05:33:35.805Z,1.20
2022-11-07T05:36:29.082Z,1.80
2022-11-07T05:38:55.914Z,1.67
2022-11-07T05:41:22.773Z,1.58
2022-11-07T05:43:49.619Z,1.38
2022-11-07T05:46:16.385Z,1.50
2022-11-07T05:48:43.373Z,1.98
2022-11-07T05:51:10.312Z,1.23
2022-11-07T05:53:37.262Z,1.45
2022-11-07T05:56:04.275Z,1.80
2022-11-07T05:58:31.127Z,1.30
2022-11-07T06:01:02.306Z,1.42
2022-11-07T06:03:29.485Z,2.00
2022-11-07T06:05:56.324Z,2.70
2022-11-07T06:08:23.445Z,4.85
2022-11-07T06:10:50.589Z,5.55
2022-11-07T06:13:18.103Z,2.00
2022-11-07T06:15:46.427Z,2.33
2022-11-07T06:18:21.141Z,1.70
2022-11-07T06:20:48.214Z,2.30
2022-11-07T06:23:16.049Z,1.75
2022-11-07T06:25:43.332Z,2.08
2022-11-07T06:28:12.885Z,2.20
2022-11-07T06:30:40.553Z,2.28
2022-11-07T06:33:12.041Z,2.35
2022-11-07T06:35:39.010Z,2.05
2022-11-07T06:38:08.814Z,2.10
2022-11-07T06:40:36.202Z,2.03
2022-11-07T06:43:14.983Z,2.25
2022-11-07T06:45:42.914Z,1.90
2022-11-07T06:48:11.147Z,1.80
2022-11-07T06:50:38.244Z,1.48
2022-11-07T06:53:08.087Z,1.90
2022-11-07T06:55:36.192Z,2.03
2022-11-07T06:58:03.732Z,1.73
2022-11-07T07:00:33.043Z,1.70
2022-11-07T07:03:00.062Z,1.80
2022-11-07T07:05:27.537Z,1.60
2022-11-07T07:07:56.133Z,3.33
2022-11-07T07:10:25.135Z,3.85
2022-11-07T07:12:53.396Z,2.58
2022-11-07T07:15:20.371Z,2.15
2022-11-07T07:17:47.299Z,2.30
2022-11-07T07:20:14.085Z,2.05
2022-11-07T07:22:40.892Z,2.10
2022-11-07T07:25:08.658Z,1.95
2022-11-07T07:27:35.769Z,2.15
2022-11-07T07:30:03.283Z,2.00
2022-11-07T07:32:30.108Z,2.03
2022-11-07T07:34:56.927Z,1.65
2022-11-07T07:37:23.785Z,1.90
2022-11-07T07:39:50.754Z,2.05
2022-11-07T07:42:17.599Z,1.98
2022-11-07T07:44:45.630Z,2.70
2022-11-07T07:47:12.552Z,2.47
2022-11-07T07:49:39.376Z,1.58
2022-11-07T07:52:06.577Z,1.73
2022-11-07T07:54:33.350Z,1.77
2022-11-07T07:57:01.462Z,1.75
2022-11-07T07:59:28.281Z,1.92
2022-11-07T08:01:57.160Z,1.85
2022-11-07T08:04:24.279Z,1.55
2022-11-07T08:06:51.115Z,1.50
2022-11-07T08:09:17.944Z,1.23
2022-11-07T08:11:44.728Z,1.70
2022-11-07T08:14:11.787Z,1.73
2022-11-07T08:16:38.762Z,1.27
2022-11-07T08:19:05.547Z,1.52
2022-11-07T08:21:32.370Z,1.48
2022-11-07T08:23:59.196Z,1.13
2022-11-07T08:26:26.285Z,1.23
2022-11-07T08:28:54.401Z,1.20
2022-11-07T08:31:21.396Z,2.08
2022-11-07T08:33:48.305Z,1.30
2022-11-07T08:36:15.213Z,1.30
2022-11-07T08:38:42.031Z,1.27
2022-11-07T08:41:08.912Z,1.60
2022-11-07T08:43:35.775Z,1.60
2022-11-07T08:46:02.644Z,1.65
2022-11-07T08:48:29.455Z,1.42
2022-11-07T08:50:58.075Z,1.67
2022-11-07T08:53:26.413Z,1.95
2022-11-07T08:55:53.309Z,1.95
2022-11-07T08:58:20.200Z,1.38
2022-11-07T09:00:47.170Z,2.35
2022-11-07T09:06:01.238Z,2.38
2022-11-07T09:08:28.058Z,1.70
2022-11-07T09:10:54.899Z,1.00
2022-11-07T09:13:27.530Z,1.80
2022-11-07T09:15:59.382Z,1.42
2022-11-07T09:18:27.678Z,1.95
2022-11-07T09:20:54.595Z,2.00
2022-11-07T09:23:21.634Z,1.45
2022-11-07T09:25:48.534Z,1.00
2022-11-07T09:28:16.024Z,1.90
2022-11-07T09:30:43.741Z,1.00
2022-11-07T09:33:10.595Z,1.70
2022-11-07T09:35:37.498Z,1.30
2022-11-07T09:38:05.239Z,1.02
2022-11-07T09:40:43.966Z,1.20
2022-11-07T09:43:29.207Z,1.15
2022-11-07T09:46:22.770Z,0.93
2022-11-07T09:48:58.465Z,1.08
2022-11-07T09:51:34.272Z,1.13
2022-11-07T09:54:15.446Z,1.20
2022-11-07T09:56:44.353Z,1.00
2022-11-07T09:59:40.620Z,1.30
2022-11-07T10:02:19.272Z,1.10
2022-11-07T10:04:50.134Z,0.98
2022-11-07T10:07:24.793Z,1.30
2022-11-07T10:10:27.655Z,1.30
2022-11-07T10:13:23.687Z,1.60
2022-11-07T10:16:25.929Z,1.05
2022-11-07T10:19:13.105Z,1.15
2022-11-07T10:22:23.124Z,1.00
2022-11-07T10:25:14.141Z,1.27
2022-11-07T10:27:41.194Z,1.05
2022-11-07T10:30:19.098Z,1.33
2022-11-07T10:33:34.104Z,1.55
2022-11-07T10:36:11.474Z,1.40
2022-11-07T10:38:42.088Z,2.00
2022-11-07T10:41:16.365Z,1.50
2022-11-07T10:43:46.966Z,1.92
2022-11-07T10:46:25.216Z,1.95
2022-11-07T10:48:58.190Z,1.80
2022-11-07T10:51:35.422Z,1.48
2022-11-07T10:54:02.463Z,1.52
2022-11-07T10:56:29.426Z,1.60
2022-11-07T10:58:57.794Z,1.20
2022-11-07T11:01:26.281Z,1.60
2022-11-07T11:03:53.902Z,1.75
2022-11-07T11:06:22.383Z,1.73
2022-11-07T11:08:51.898Z,1.60
2022-11-07T11:11:21.744Z,2.35
2022-11-07T11:13:49.202Z,1.80
2022-11-07T11:16:27.962Z,2.03
2022-11-07T11:18:57.901Z,1.83
2022-11-07T11:21:25.495Z,1.92
2022-11-07T11:23:54.954Z,1.88
2022-11-07T11:26:28.754Z,1.30
2022-11-07T11:29:05.283Z,1.58
2022-11-07T11:31:37.097Z,2.25
2022-11-07T11:34:19.243Z,1.88
2022-11-07T11:37:06.483Z,1.92
2022-11-07T11:39:42.932Z,2.10
2022-11-07T11:42:23.534Z,2.40
2022-11-07T11:44:52.717Z,1.88
2022-11-07T11:47:25.690Z,1.95
2022-11-07T11:50:17.786Z,1.50
2022-11-07T11:52:47.406Z,1.00
2022-11-07T11:55:16.340Z,1.20
2022-11-07T11:58:05.326Z,0.80
2022-11-07T12:00:46.179Z,1.05
2022-11-07T12:03:45.583Z,0.80
2022-11-07T12:06:16.004Z,0.70
2022-11-07T12:09:17.293Z,1.02
2022-11-07T12:12:00.394Z,0.73
2022-11-07T12:14:57.302Z,0.60
2022-11-07T12:17:30.762Z,0.70
2022-11-07T12:20:20.112Z,0.88
2022-11-07T12:23:17.471Z,0.55
2022-11-07T12:26:29.690Z,0.50
2022-11-07T12:29:28.219Z,1.00
2022-11-07T12:32:10.184Z,0.60
2022-11-07T12:34:55.861Z,0.70
2022-11-07T12:37:52.634Z,0.52
2022-11-07T12:40:31.707Z,0.70
2022-11-07T12:43:16.183Z,0.75
2022-11-07T12:45:52.555Z,0.85
2022-11-07T12:48:19.610Z,1.00
2022-11-07T12:51:15.546Z,0.82
2022-11-07T12:53:57.004Z,1.00
2022-11-07T12:56:33.006Z,1.20
2022-11-07T12:59:03.914Z,0.80
2022-11-07T13:01:58.483Z,0.77
2022-11-07T13:04:41.128Z,0.70
2022-11-07T13:07:31.781Z,0.85
2022-11-07T13:10:06.750Z,0.60
2022-11-07T13:13:05.652Z,1.35
2022-11-07T13:15:53.772Z,1.40
2022-11-07T13:18:27.928Z,0.70
2022-11-07T13:21:06.645Z,0.80
2022-11-07T13:23:33.646Z,0.90
2022-11-07T13:26:14.789Z,1.10
2022-11-07T13:29:01.433Z,0.60
2022-11-07T13:31:40.310Z,1.15
2022-11-07T13:34:26.502Z,0.80
2022-11-07T13:37:00.852Z,0.88
2022-11-07T13:39:29.956Z,0.50
2022-11-07T13:41:58.413Z,0.70
2022-11-07T13:44:50.898Z,0.95
2022-11-07T13:47:24.468Z,0.70
2022-11-07T13:49:51.714Z,1.00
2022-11-07T13:52:38.884Z,0.57
2022-11-07T13:55:14.135Z,0.60
2022-11-07T13:57:43.973Z,0.50
2022-11-07T14:00:14.849Z,0.77
2022-11-07T14:02:57.169Z,0.70
2022-11-07T14:05:30.143Z,1.08
2022-11-07T14:08:04.971Z,1.10
2022-11-07T14:10:42.629Z,0.77
2022-11-07T14:13:12.607Z,0.63
2022-11-07T14:15:49.215Z,0.80
2022-11-07T14:18:18.607Z,0.80
2022-11-07T14:20:52.839Z,0.93
2022-11-07T14:23:32.455Z,0.70
2022-11-07T14:26:22.592Z,0.55
2022-11-07T14:28:50.340Z,0.80
2022-11-07T14:31:31.100Z,0.80
2022-11-07T14:34:20.447Z,0.60
2022-11-07T14:36:51.595Z,0.60
2022-11-07T14:39:20.581Z,0.70
2022-11-07T14:41:48.347Z,0.73
2022-11-07T14:44:19.449Z,0.70
2022-11-07T14:46:47.552Z,0.80
2022-11-07T14:49:32.329Z,0.65
2022-11-07T14:51:59.241Z,0.63
2022-11-07T14:54:37.686Z,0.90
2022-11-07T14:57:05.564Z,0.85
2022-11-07T14:59:35.489Z,0.85
2022-11-07T15:02:08.650Z,1.27
2022-11-07T15:04:36.831Z,1.45
2022-11-07T15:07:30.688Z,1.52
2022-11-07T15:09:59.808Z,1.05
2022-11-07T15:12:36.569Z,1.13
2022-11-07T15:15:19.062Z,0.65
2022-11-07T15:17:51.370Z,1.00
2022-11-07T15:20:32.905Z,1.10
2022-11-07T15:23:01.958Z,0.88
2022-11-07T15:25:34.651Z,1.08
2022-11-07T15:28:20.452Z,0.70
2022-11-07T15:30:48.450Z,1.10
2022-11-07T15:33:17.290Z,1.52
2022-11-07T15:35:47.123Z,1.00
2022-11-07T15:38:23.088Z,1.10
2022-11-07T15:40:51.441Z,0.90
2022-11-07T15:43:19.633Z,1.08
2022-11-07T15:45:52.330Z,1.13
2022-11-07T15:48:22.594Z,2.67
2022-11-07T15:50:50.822Z,1.77
2022-11-07T15:53:29.016Z,1.73
2022-11-07T15:56:01.392Z,3.08
2022-11-07T15:58:29.763Z,3.58
2022-11-07T16:00:58.706Z,3.10
2022-11-07T16:03:27.551Z,3.40
2022-11-07T16:05:57.758Z,2.85
2022-11-07T16:08:25.242Z,2.97
2022-11-07T16:10:55.536Z,6.63
2022-11-07T16:13:22.590Z,6.57
2022-11-07T16:15:53.091Z,5.95
2022-11-07T16:18:22.382Z,4.53
2022-11-07T16:20:49.960Z,4.20
2022-11-07T16:23:18.261Z,4.78
2022-11-07T16:25:48.184Z,4.65
2022-11-07T16:28:22.355Z,3.55
2022-11-07T16:30:50.043Z,4.65
2022-11-07T16:33:17.362Z,7.22
2022-11-07T16:35:44.570Z,12.02
2022-11-07T16:38:16.326Z,8.73
2022-11-07T16:40:44.054Z,8.10
2022-11-07T16:43:11.145Z,6.05
2022-11-07T16:45:43.584Z,4.60
2022-11-07T16:48:22.365Z,3.63
2022-11-07T16:50:50.218Z,2.58
2022-11-07T16:53:18.029Z,2.67
2022-11-07T16:55:54.180Z,2.03
2022-11-07T16:58:26.686Z,1.55
2022-11-07T17:00:56.468Z,2.63
2022-11-07T17:03:24.075Z,4.07
2022-11-07T17:05:55.607Z,2.92
2022-11-07T17:08:36.719Z,3.85
2022-11-07T17:11:04.139Z,2.50
2022-11-07T17:13:31.274Z,1.70
2022-11-07T17:15:58.275Z,2.63
2022-11-07T17:18:26.899Z,2.60
2022-11-07T17:20:54.796Z,1.90
2022-11-07T17:23:29.580Z,2.05
2022-11-07T17:26:02.335Z,2.92
2022-11-07T17:28:29.280Z,2.92
2022-11-07T17:30:56.132Z,3.05
2022-11-07T17:33:22.924Z,3.88
2022-11-07T17:35:53.341Z,3.70
2022-11-07T17:38:20.420Z,4.30
2022-11-07T17:40:47.855Z,4.57
2022-11-07T17:43:14.705Z,2.75
2022-11-07T17:45:41.792Z,2.92
2022-11-07T17:48:10.307Z,3.40
2022-11-07T17:50:38.046Z,3.00
2022-11-07T17:53:05.064Z,2.97
2022-11-07T17:55:31.913Z,3.53
2022-11-07T17:57:58.843Z,2.92
2022-11-07T18:00:27.395Z,4.13
2022-11-07T18:02:54.555Z,3.33
2022-11-07T18:05:24.716Z,3.10
2022-11-07T18:07:53.769Z,3.25
2022-11-07T18:10:20.572Z,3.63
2022-11-07T18:12:47.424Z,3.67
2022-11-07T18:15:14.253Z,3.88
2022-11-07T18:17:41.610Z,3.00
2022-11-07T18:20:09.781Z,4.05
2022-11-07T18:22:37.388Z,3.70
2022-11-07T18:25:08.192Z,3.70
2022-11-07T18:27:35.361Z,3.95
2022-11-07T18:30:03.133Z,5.55
2022-11-07T18:32:35.699Z,4.97
2022-11-07T18:35:06.160Z,4.47
2022-11-07T18:37:33.955Z,6.82
2022-11-07T18:40:00.738Z,13.75
2022-11-07T18:42:29.205Z,6.00
2022-11-07T18:44:56.082Z,5.78
2022-11-07T18:47:23.022Z,3.88
2022-11-07T18:49:54.175Z,4.60
2022-11-07T18:52:24.198Z,3.42
2022-11-07T18:54:51.526Z,5.28
2022-11-07T18:57:21.431Z,4.70
2022-11-07T18:59:48.415Z,4.20
2022-11-07T19:02:15.668Z,4.10
2022-11-07T19:04:44.609Z,3.17
2022-11-07T19:07:11.452Z,3.88
2022-11-07T19:09:38.442Z,4.82
2022-11-07T19:12:05.503Z,5.90
2022-11-07T19:14:32.510Z,5.65
2022-11-07T19:16:59.389Z,4.90
2022-11-07T19:19:26.373Z,3.67
2022-11-07T19:21:53.222Z,4.72
2022-11-07T19:24:20.110Z,6.35
2022-11-07T19:26:46.941Z,4.72
2022-11-07T19:29:13.779Z,4.75
2022-11-07T19:31:40.642Z,4.95
2022-11-07T19:34:08.187Z,3.60
2022-11-07T19:36:36.993Z,8.65
2022-11-07T19:39:04.481Z,7.18
2022-11-07T19:41:31.391Z,5.57
2022-11-07T19:44:01.659Z,5.03
2022-11-07T19:46:28.591Z,4.13
2022-11-07T19:48:56.578Z,4.00
2022-11-07T19:51:23.480Z,3.70
2022-11-07T19:53:59.330Z,5.95
2022-11-07T19:56:28.313Z,6.30
2022-11-07T19:58:58.960Z,4.28
2022-11-07T20:01:28.694Z,5.15
2022-11-07T20:03:56.318Z,4.88
2022-11-07T20:06:26.359Z,4.25
2022-11-07T20:08:53.422Z,4.55
2022-11-07T20:11:23.556Z,4.25
2022-11-07T20:13:50.870Z,4.40
2022-11-07T20:16:19.047Z,4.55
2022-11-07T20:18:45.941Z,4.32
2022-11-07T20:21:19.593Z,5.30
2022-11-07T20:23:48.106Z,5.32
2022-11-07T20:26:17.705Z,5.75
2022-11-07T20:28:45.881Z,5.45
2022-11-07T20:31:14.695Z,5.50
2022-11-07T20:33:42.149Z,6.68
2022-11-07T20:36:12.969Z,8.07
2022-11-07T20:38:40.346Z,8.50
2022-11-07T20:41:07.956Z,6.07
2022-11-07T20:43:35.103Z,6.53
2022-11-07T20:46:07.677Z,6.43
2022-11-07T20:48:35.868Z,7.05
2022-11-07T20:51:14.347Z,7.28
2022-11-07T20:53:48.381Z,7.72
2022-11-07T20:56:17.436Z,7.55
2022-11-07T20:58:44.943Z,7.55
2022-11-07T21:01:23.754Z,7.85
2022-11-07T21:03:51.043Z,7.95
2022-11-07T21:06:18.575Z,8.40
2022-11-07T21:08:48.212Z,8.38
2022-11-07T21:11:15.970Z,7.57
2022-11-07T21:13:49.585Z,8.35
2022-11-07T21:16:21.767Z,9.32
2022-11-07T21:18:50.036Z,11.48
2022-11-07T21:21:28.532Z,11.32
2022-11-07T21:23:57.145Z,16.63
2022-11-07T21:26:27.016Z,13.65
2022-11-07T21:28:54.583Z,11.77
2022-11-07T21:31:24.967Z,12.05
2022-11-07T21:33:52.378Z,11.52
2022-11-07T21:36:22.165Z,12.10
2022-11-07T21:38:49.604Z,11.27
2022-11-07T21:41:17.346Z,10.80
2022-11-07T21:43:44.421Z,12.27
2022-11-07T21:46:21.499Z,11.57
2022-11-07T21:48:49.013Z,11.52
2022-11-07T21:51:30.804Z,11.43
2022-11-07T21:53:59.153Z,10.90
2022-11-07T21:56:29.133Z,10.98
2022-11-07T21:59:22.438Z,12.98
2022-11-07T22:01:50.072Z,11.70
2022-11-07T22:04:16.940Z,11.23
2022-11-07T22:06:45.320Z,11.35
2022-11-07T22:09:17.521Z,11.60
2022-11-07T22:11:45.102Z,11.15
2022-11-07T22:14:17.126Z,10.70
2022-11-07T22:16:44.210Z,10.57
2022-11-07T22:19:12.876Z,10.98
2022-11-07T22:21:40.404Z,10.80
2022-11-07T22:24:07.671Z,10.43
2022-11-07T22:26:34.842Z,11.00
2022-11-07T22:29:01.625Z,10.00
2022-11-07T22:31:30.738Z,10.32
2022-11-07T22:33:59.308Z,10.73
2022-11-07T22:36:26.337Z,9.70
2022-11-07T22:38:53.175Z,10.98
2022-11-07T22:41:23.628Z,10.73
2022-11-07T22:43:51.320Z,10.63
2022-11-07T22:46:20.982Z,9.52
2022-11-07T22:48:49.272Z,10.30
2022-11-07T22:51:24.945Z,9.85
2022-11-07T22:53:57.130Z,9.35
2022-11-07T22:56:24.501Z,9.95
2022-11-07T22:58:51.538Z,10.10
2022-11-07T23:01:24.519Z,9.30
2022-11-07T23:03:52.498Z,9.98
2022-11-07T23:06:20.363Z,9.05
2022-11-07T23:08:48.306Z,8.93
2022-11-07T23:14:13.175Z,7.70
2022-11-07T23:16:44.228Z,7.78
2022-11-07T23:19:13.526Z,7.63
2022-11-07T23:21:40.637Z,7.10
2022-11-07T23:24:07.909Z,7.60
2022-11-07T23:26:35.674Z,7.18
2022-11-07T23:29:15.845Z,7.35
2022-11-07T23:31:45.575Z,7.68
2022-11-07T23:34:13.325Z,7.05
2022-11-07T23:36:43.760Z,8.20
2022-11-07T23:39:15.535Z,8.23
2022-11-07T23:41:43.304Z,8.93
2022-11-07T23:44:11.947Z,8.75
2022-11-07T23:46:57.976Z,8.88
2022-11-07T23:49:43.573Z,8.23
2022-11-07T23:52:10.834Z,8.07
2022-11-07T23:54:56.102Z,7.28
2022-11-07T23:57:23.128Z,8.00
